createdAt,value
2019-02-21T00:01:06.078Z,8.99
2019-02-21T00:03:35.664Z,8.99
2019-02-21T00:06:06.287Z,8.97
2019-02-21T00:08:35.937Z,8.95
2019-02-21T00:11:05.356Z,8.94
2019-02-21T00:13:35.139Z,8.91
2019-02-21T00:16:04.560Z,8.91
2019-02-21T00:18:35.324Z,8.90
2019-02-21T00:21:04.732Z,8.89
2019-02-21T00:23:34.401Z,8.87
2019-02-21T00:26:04.446Z,8.88
2019-02-21T00:28:34.510Z,8.91
2019-02-21T00:31:04.355Z,8.91
2019-02-21T00:33:33.836Z,8.92
2019-02-21T00:36:03.589Z,8.91
2019-02-21T00:38:33.048Z,8.92
2019-02-21T00:41:02.548Z,8.93
2019-02-21T00:43:31.949Z,8.96
2019-02-21T00:46:01.412Z,8.97
2019-02-21T00:48:30.888Z,8.98
2019-02-21T00:51:00.312Z,8.96
2019-02-21T00:53:29.789Z,8.95
2019-02-21T00:56:00.290Z,8.97
2019-02-21T00:58:30.025Z,9.00
2019-02-21T01:00:59.626Z,9.04
2019-02-21T01:03:29.086Z,9.01
2019-02-21T01:05:59.605Z,9.01
2019-02-21T01:08:29.073Z,9.00
2019-02-21T01:10:58.547Z,9.01
2019-02-21T01:13:28.520Z,9.03
2019-02-21T01:15:57.988Z,9.06
2019-02-21T01:18:27.491Z,9.02
2019-02-21T01:20:56.970Z,9.03
2019-02-21T01:23:27.711Z,9.04
2019-02-21T01:25:57.185Z,9.00
2019-02-21T01:28:26.616Z,8.96
2019-02-21T01:30:57.197Z,8.95
2019-02-21T01:33:26.772Z,8.93
2019-02-21T01:35:56.250Z,8.90
2019-02-21T01:38:25.685Z,8.91
2019-02-21T01:40:55.232Z,8.90
2019-02-21T01:43:24.665Z,8.91
2019-02-21T01:45:54.124Z,8.90
2019-02-21T01:48:23.530Z,8.91
2019-02-21T01:50:53.027Z,8.92
2019-02-21T01:53:22.475Z,8.89
2019-02-21T01:55:51.894Z,8.88
2019-02-21T01:58:21.346Z,8.87
2019-02-21T02:00:50.778Z,8.86
2019-02-21T02:03:20.180Z,8.88
2019-02-21T02:05:49.754Z,8.89
2019-02-21T02:08:19.228Z,8.87
2019-02-21T02:10:48.693Z,8.90
2019-02-21T02:13:24.693Z,8.93
2019-02-21T02:15:49.274Z,8.91
2019-02-21T02:18:18.692Z,8.90
2019-02-21T02:20:48.164Z,8.89
2019-02-21T02:23:17.586Z,8.88
2019-02-21T02:25:47.054Z,8.88
2019-02-21T02:28:16.544Z,8.91
2019-02-21T02:30:45.973Z,8.96
2019-02-21T02:33:15.392Z,8.95
2019-02-21T02:35:44.863Z,8.94
2019-02-21T02:38:14.265Z,8.95
2019-02-21T02:40:43.770Z,8.97
2019-02-21T02:43:13.176Z,8.98
2019-02-21T02:45:42.896Z,8.99
2019-02-21T02:48:12.315Z,8.98
2019-02-21T02:50:41.914Z,9.00
2019-02-21T02:53:11.442Z,9.03
2019-02-21T02:55:40.904Z,9.06
2019-02-21T02:58:10.338Z,9.07
2019-02-21T03:00:39.813Z,9.06
2019-02-21T03:03:09.235Z,9.07
2019-02-21T03:05:39.678Z,9.10
2019-02-21T03:08:09.161Z,9.08
2019-02-21T03:10:38.621Z,9.09
2019-02-21T03:13:08.050Z,9.06
2019-02-21T03:15:37.506Z,9.05
2019-02-21T03:18:06.920Z,9.05
2019-02-21T03:20:36.379Z,9.06
2019-02-21T03:23:05.790Z,9.09
2019-02-21T03:25:35.258Z,9.09
2019-02-21T03:28:04.952Z,9.09
2019-02-21T03:30:34.381Z,9.07
2019-02-21T03:33:04.565Z,9.05
2019-02-21T03:35:34.034Z,9.03
2019-02-21T03:38:04.415Z,9.01
2019-02-21T03:40:33.855Z,9.00
2019-02-21T03:43:04.414Z,8.97
2019-02-21T03:45:33.820Z,8.98
2019-02-21T03:48:03.408Z,8.97
2019-02-21T03:50:32.850Z,8.99
2019-02-21T03:53:03.249Z,9.03
2019-02-21T03:55:32.656Z,9.05
2019-02-21T03:58:02.201Z,9.02
2019-02-21T04:00:31.628Z,9.03
2019-02-21T04:03:01.150Z,9.05
2019-02-21T04:05:30.613Z,9.04
2019-02-21T04:08:00.066Z,9.04
2019-02-21T04:10:29.490Z,9.04
2019-02-21T04:12:59.018Z,9.04
2019-02-21T04:15:28.612Z,9.05
2019-02-21T04:17:58.083Z,9.01
2019-02-21T04:20:27.521Z,8.97
2019-02-21T04:22:57.000Z,8.97
2019-02-21T04:25:26.464Z,8.98
2019-02-21T04:27:55.889Z,8.96
2019-02-21T04:30:25.341Z,8.98
2019-02-21T04:32:54.783Z,8.95
2019-02-21T04:35:25.309Z,8.97
2019-02-21T04:37:54.776Z,8.98
2019-02-21T04:40:24.321Z,8.98
2019-02-21T04:42:53.740Z,8.98
2019-02-21T04:45:23.160Z,9.00
2019-02-21T04:47:52.641Z,9.01
2019-02-21T04:50:22.056Z,9.00
2019-02-21T04:52:51.522Z,8.99
2019-02-21T04:55:20.954Z,8.96
2019-02-21T04:57:50.426Z,8.93
2019-02-21T05:00:19.900Z,8.95
2019-02-21T05:02:49.364Z,8.95
2019-02-21T05:05:18.793Z,8.97
2019-02-21T05:07:48.274Z,9.00
2019-02-21T05:10:17.691Z,9.04
2019-02-21T05:12:47.228Z,9.07
2019-02-21T05:15:16.705Z,9.09
2019-02-21T05:17:46.249Z,9.02
2019-02-21T05:20:15.640Z,9.02
2019-02-21T05:22:45.111Z,9.06
2019-02-21T05:25:14.528Z,9.07
2019-02-21T05:27:45.654Z,9.07
2019-02-21T05:30:16.793Z,9.09
2019-02-21T05:32:47.875Z,9.10
2019-02-21T05:35:24.529Z,9.12
2019-02-21T05:37:58.336Z,9.11
2019-02-21T05:40:46.757Z,9.10
2019-02-21T05:43:20.549Z,9.12
2019-02-21T05:45:51.706Z,9.14
2019-02-21T05:48:25.687Z,9.12
2019-02-21T05:51:02.663Z,9.16
2019-02-21T05:53:36.125Z,9.17
2019-02-21T05:56:07.229Z,9.17
2019-02-21T05:58:46.999Z,9.21
2019-02-21T06:01:27.081Z,9.22
2019-02-21T06:04:12.921Z,9.25
2019-02-21T06:06:46.899Z,9.23
2019-02-21T06:09:18.007Z,9.23
2019-02-21T06:12:05.435Z,9.21
2019-02-21T06:14:51.802Z,9.20
2019-02-21T06:17:22.882Z,9.23
2019-02-21T06:20:02.991Z,9.25
2019-02-21T06:22:36.749Z,9.28
2019-02-21T06:25:07.999Z,9.32
2019-02-21T06:27:39.093Z,9.37
2019-02-21T06:30:10.866Z,9.37
2019-02-21T06:32:40.936Z,9.35
2019-02-21T06:35:11.240Z,9.35
2019-02-21T06:37:40.702Z,9.35
2019-02-21T06:40:10.221Z,9.31
2019-02-21T06:42:39.695Z,9.33
2019-02-21T06:45:09.176Z,9.33
2019-02-21T06:47:38.642Z,9.34
2019-02-21T06:50:08.138Z,9.36
2019-02-21T06:52:37.587Z,9.37
2019-02-21T06:55:07.250Z,9.39
2019-02-21T06:57:37.081Z,9.43
2019-02-21T07:00:07.045Z,9.45
2019-02-21T07:02:36.567Z,9.47
2019-02-21T07:05:05.989Z,9.51
2019-02-21T07:07:35.416Z,9.51
2019-02-21T07:10:07.073Z,9.54
2019-02-21T07:12:36.523Z,9.54
2019-02-21T07:15:10.106Z,9.55
2019-02-21T07:17:48.751Z,9.53
2019-02-21T07:20:12.926Z,9.54
2019-02-21T07:22:42.128Z,9.58
2019-02-21T07:25:13.314Z,9.64
2019-02-21T07:27:43.713Z,9.68
2019-02-21T07:30:19.770Z,9.73
2019-02-21T07:32:44.559Z,9.81
2019-02-21T07:35:14.031Z,9.91
2019-02-21T07:37:43.527Z,9.99
2019-02-21T07:40:19.840Z,10.04
2019-02-21T07:42:44.178Z,10.08
2019-02-21T07:45:13.790Z,10.12
2019-02-21T07:47:43.387Z,10.13
2019-02-21T07:50:13.722Z,10.12
2019-02-21T07:52:43.254Z,10.05
2019-02-21T07:55:12.708Z,10.00
2019-02-21T07:57:42.205Z,9.97
2019-02-21T08:00:12.894Z,9.99
2019-02-21T08:02:42.368Z,9.98
2019-02-21T08:05:11.856Z,9.94
2019-02-21T08:07:41.318Z,9.92
2019-02-21T08:10:12.311Z,9.91
2019-02-21T08:12:41.725Z,9.93
2019-02-21T08:15:12.941Z,10.00
2019-02-21T08:17:42.354Z,10.13
2019-02-21T08:20:12.651Z,10.13
2019-02-21T08:22:42.120Z,10.14
2019-02-21T08:25:11.695Z,10.16
2019-02-21T08:27:42.617Z,10.21
2019-02-21T08:30:15.418Z,10.30
2019-02-21T08:32:46.591Z,10.42
2019-02-21T08:35:16.014Z,10.52
2019-02-21T08:37:45.473Z,10.62
2019-02-21T08:40:14.904Z,10.73
2019-02-21T08:42:44.379Z,10.83
2019-02-21T08:45:13.794Z,10.92
2019-02-21T08:47:43.265Z,10.98
2019-02-21T08:50:12.766Z,10.99
2019-02-21T08:52:42.189Z,11.10
2019-02-21T08:55:11.780Z,11.25
2019-02-21T08:57:41.249Z,11.37
2019-02-21T09:00:13.805Z,11.44
2019-02-21T09:02:43.476Z,11.49
2019-02-21T09:05:14.018Z,11.64
2019-02-21T09:07:46.274Z,11.78
2019-02-21T09:10:15.153Z,11.83
2019-02-21T09:12:48.244Z,11.71
2019-02-21T09:15:17.333Z,11.69
2019-02-21T09:17:46.768Z,11.70
2019-02-21T09:20:16.309Z,11.71
2019-02-21T09:22:45.732Z,11.82
2019-02-21T09:25:16.251Z,11.92
2019-02-21T09:27:45.683Z,11.96
2019-02-21T09:30:17.684Z,12.03
2019-02-21T09:32:47.134Z,12.09
2019-02-21T09:35:16.614Z,12.13
2019-02-21T09:37:46.119Z,12.27
2019-02-21T09:40:15.712Z,12.40
2019-02-21T09:42:46.392Z,12.49
2019-02-21T09:45:17.843Z,12.64
2019-02-21T09:47:47.412Z,12.67
2019-02-21T09:50:16.951Z,12.79
2019-02-21T09:52:46.398Z,12.79
2019-02-21T09:55:17.602Z,12.78
2019-02-21T09:57:47.024Z,12.78
2019-02-21T10:00:19.074Z,12.78
2019-02-21T10:02:48.582Z,12.84
2019-02-21T10:05:18.052Z,12.84
2019-02-21T10:07:47.474Z,12.85
2019-02-21T10:10:26.899Z,12.93
2019-02-21T10:12:55.541Z,12.97
2019-02-21T10:15:24.983Z,12.86
2019-02-21T10:17:54.697Z,12.82
2019-02-21T10:20:24.157Z,12.81
2019-02-21T10:22:57.067Z,12.78
2019-02-21T10:25:30.740Z,12.59
2019-02-21T10:28:00.581Z,12.40
2019-02-21T10:30:30.064Z,12.31
2019-02-21T10:32:59.524Z,12.26
2019-02-21T10:35:28.991Z,12.26
2019-02-21T10:37:58.422Z,12.24
2019-02-21T10:40:27.897Z,12.25
2019-02-21T10:42:57.322Z,12.29
2019-02-21T10:45:26.802Z,12.35
2019-02-21T10:47:56.269Z,12.40
2019-02-21T10:50:25.707Z,12.45
2019-02-21T10:52:55.215Z,12.49
2019-02-21T10:55:24.795Z,12.55
2019-02-21T10:57:54.360Z,12.61
2019-02-21T11:00:30.587Z,12.63
2019-02-21T11:03:00.070Z,12.68
2019-02-21T11:05:29.501Z,12.79
2019-02-21T11:07:59.336Z,12.89
2019-02-21T11:10:29.910Z,13.03
2019-02-21T11:12:59.373Z,13.28
2019-02-21T11:15:28.816Z,13.51
2019-02-21T11:17:58.354Z,13.52
2019-02-21T11:20:27.893Z,13.67
2019-02-21T11:22:57.358Z,13.92
2019-02-21T11:25:26.846Z,13.87
2019-02-21T11:27:56.272Z,13.85
2019-02-21T11:30:25.747Z,14.02
2019-02-21T11:32:55.167Z,14.24
2019-02-21T11:35:24.734Z,14.21
2019-02-21T11:37:54.214Z,14.25
2019-02-21T11:40:23.707Z,14.32
2019-02-21T11:42:53.201Z,14.35
2019-02-21T11:45:22.622Z,14.49
2019-02-21T11:47:52.104Z,14.61
2019-02-21T11:50:21.602Z,14.63
2019-02-21T11:52:51.072Z,14.53
2019-02-21T11:55:22.331Z,14.50
2019-02-21T11:57:51.805Z,14.49
2019-02-21T12:00:23.793Z,14.50
2019-02-21T12:02:54.392Z,14.44
2019-02-21T12:05:32.196Z,14.34
2019-02-21T12:07:55.554Z,14.13
2019-02-21T12:10:25.069Z,13.92
2019-02-21T12:12:54.547Z,13.73
2019-02-21T12:15:24.110Z,13.61
2019-02-21T12:17:53.812Z,13.54
2019-02-21T12:20:23.302Z,13.45
2019-02-21T12:22:52.776Z,13.45
2019-02-21T12:25:25.262Z,13.51
2019-02-21T12:27:54.711Z,13.58
2019-02-21T12:30:24.566Z,13.61
2019-02-21T12:32:54.078Z,13.69
2019-02-21T12:35:29.676Z,13.67
2019-02-21T12:37:54.806Z,13.61
2019-02-21T12:40:24.480Z,13.69
2019-02-21T12:42:53.999Z,13.79
2019-02-21T12:45:25.299Z,13.95
2019-02-21T12:47:54.860Z,14.10
2019-02-21T12:50:24.343Z,14.12
2019-02-21T12:52:53.871Z,14.15
2019-02-21T12:55:29.262Z,14.19
2019-02-21T12:57:54.498Z,14.30
2019-02-21T13:00:24.409Z,14.34
2019-02-21T13:02:53.871Z,14.50
2019-02-21T13:05:23.295Z,14.47
2019-02-21T13:07:52.720Z,14.45
2019-02-21T13:10:23.736Z,14.41
2019-02-21T13:12:53.194Z,14.45
2019-02-21T13:15:22.613Z,14.52
2019-02-21T13:17:52.484Z,14.63
2019-02-21T13:20:21.915Z,14.53
2019-02-21T13:22:51.389Z,14.47
2019-02-21T13:25:20.866Z,14.48
2019-02-21T13:27:50.286Z,14.51
2019-02-21T13:30:19.838Z,14.52
2019-02-21T13:32:49.297Z,14.48
2019-02-21T13:35:18.720Z,14.46
2019-02-21T13:37:48.188Z,14.51
2019-02-21T13:40:20.933Z,14.49
2019-02-21T13:42:49.168Z,14.52
2019-02-21T13:45:18.773Z,14.50
2019-02-21T13:47:48.455Z,14.50
2019-02-21T13:50:19.125Z,14.55
2019-02-21T13:52:48.717Z,14.57
2019-02-21T13:55:18.167Z,14.55
2019-02-21T13:57:47.682Z,14.59
2019-02-21T14:00:21.714Z,14.66
2019-02-21T14:02:51.249Z,14.65
2019-02-21T14:05:20.674Z,14.60
2019-02-21T14:07:50.221Z,14.57
2019-02-21T14:10:19.692Z,14.53
2019-02-21T14:12:49.723Z,14.42
2019-02-21T14:15:22.301Z,14.32
2019-02-21T14:17:51.809Z,14.26
2019-02-21T14:20:21.499Z,14.21
2019-02-21T14:22:51.266Z,14.19
2019-02-21T14:25:20.975Z,14.15
2019-02-21T14:27:50.509Z,14.10
2019-02-21T14:30:21.433Z,14.06
2019-02-21T14:32:51.000Z,13.98
2019-02-21T14:35:20.635Z,14.00
2019-02-21T14:37:50.113Z,14.03
2019-02-21T14:40:19.543Z,13.99
2019-02-21T14:42:49.347Z,13.90
2019-02-21T14:45:24.014Z,13.77
2019-02-21T14:47:53.557Z,13.70
2019-02-21T14:50:22.979Z,13.66
2019-02-21T14:52:52.612Z,13.64
2019-02-21T14:55:22.195Z,13.59
2019-02-21T14:57:51.699Z,13.52
2019-02-21T15:00:26.838Z,13.47
2019-02-21T15:02:57.922Z,13.46
2019-02-21T15:05:27.786Z,13.47
2019-02-21T15:07:57.560Z,13.53
2019-02-21T15:10:27.038Z,13.54
2019-02-21T15:12:56.480Z,13.46
2019-02-21T15:15:27.112Z,13.30
2019-02-21T15:18:07.016Z,13.21
2019-02-21T15:20:36.455Z,13.16
2019-02-21T15:22:59.062Z,13.12
2019-02-21T15:25:28.546Z,13.07
2019-02-21T15:27:58.087Z,13.05
2019-02-21T15:30:28.626Z,12.94
2019-02-21T15:32:58.105Z,12.91
2019-02-21T15:35:27.653Z,12.90
2019-02-21T15:37:57.098Z,12.90
2019-02-21T15:40:26.609Z,12.92
2019-02-21T15:42:56.408Z,12.91
2019-02-21T15:45:31.924Z,12.85
2019-02-21T15:48:01.671Z,12.75
2019-02-21T15:50:31.235Z,12.71
2019-02-21T15:53:00.662Z,12.62
2019-02-21T15:55:32.170Z,12.51
2019-02-21T15:58:04.359Z,12.45
2019-02-21T16:00:32.509Z,12.42
2019-02-21T16:03:01.933Z,12.33
2019-02-21T16:05:32.736Z,12.26
2019-02-21T16:08:02.491Z,12.17
2019-02-21T16:10:32.124Z,12.05
2019-02-21T16:13:04.304Z,11.97
2019-02-21T16:15:32.889Z,11.96
2019-02-21T16:18:02.296Z,11.91
2019-02-21T16:20:31.898Z,11.90
2019-02-21T16:23:01.412Z,11.92
2019-02-21T16:25:34.433Z,11.93
2019-02-21T16:28:04.387Z,11.91
2019-02-21T16:30:33.924Z,11.88
2019-02-21T16:33:04.420Z,11.83
2019-02-21T16:35:33.945Z,11.84
2019-02-21T16:38:05.099Z,11.82
2019-02-21T16:40:34.812Z,11.79
2019-02-21T16:43:04.331Z,11.77
2019-02-21T16:45:42.863Z,11.77
2019-02-21T16:48:05.556Z,11.75
2019-02-21T16:50:36.053Z,11.71
2019-02-21T16:53:05.748Z,11.69
2019-02-21T16:55:35.244Z,11.72
2019-02-21T16:58:04.676Z,11.70
2019-02-21T17:00:42.461Z,11.73
2019-02-21T17:03:05.862Z,11.69
2019-02-21T17:05:35.743Z,11.70
2019-02-21T17:08:06.286Z,11.71
2019-02-21T17:10:35.919Z,11.70
2019-02-21T17:13:05.327Z,11.68
2019-02-21T17:15:34.898Z,11.68
2019-02-21T17:18:04.407Z,11.66
2019-02-21T17:20:33.977Z,11.65
2019-02-21T17:23:04.411Z,11.66
2019-02-21T17:25:34.036Z,11.66
2019-02-21T17:28:04.340Z,11.68
2019-02-21T17:30:34.050Z,11.63
2019-02-21T17:33:04.363Z,11.59
2019-02-21T17:35:33.925Z,11.57
2019-02-21T17:38:04.668Z,11.56
2019-02-21T17:40:34.484Z,11.56
2019-02-21T17:43:04.828Z,11.56
2019-02-21T17:45:34.443Z,11.52
2019-02-21T17:48:04.602Z,11.49
2019-02-21T17:50:34.168Z,11.52
2019-02-21T17:53:04.626Z,11.50
2019-02-21T17:55:34.386Z,11.43
2019-02-21T17:58:04.394Z,11.41
2019-02-21T18:00:35.692Z,11.35
2019-02-21T18:03:05.234Z,11.30
2019-02-21T18:05:34.728Z,11.16
2019-02-21T18:08:05.434Z,11.18
2019-02-21T18:10:35.044Z,11.17
2019-02-21T18:13:04.856Z,11.06
2019-02-21T18:15:35.832Z,10.99
2019-02-21T18:18:05.719Z,10.99
2019-02-21T18:20:35.260Z,11.05
2019-02-21T18:23:04.967Z,11.05
2019-02-21T18:25:40.771Z,11.05
2019-02-21T18:28:11.274Z,11.08
2019-02-21T18:30:40.843Z,11.04
2019-02-21T18:33:10.283Z,11.03
2019-02-21T18:35:39.813Z,11.04
2019-02-21T18:38:09.251Z,11.05
2019-02-21T18:40:38.954Z,11.05
2019-02-21T18:43:08.684Z,11.07
2019-02-21T18:45:38.276Z,11.05
2019-02-21T18:48:07.784Z,11.06
2019-02-21T18:50:38.589Z,11.05
2019-02-21T18:53:08.165Z,11.04
2019-02-21T18:55:37.802Z,11.05
2019-02-21T18:58:07.648Z,11.06
2019-02-21T19:00:37.316Z,11.10
2019-02-21T19:03:06.738Z,11.14
2019-02-21T19:05:36.605Z,11.12
2019-02-21T19:08:06.094Z,11.11
2019-02-21T19:10:35.719Z,11.08
2019-02-21T19:13:07.662Z,11.02
2019-02-21T19:15:36.365Z,11.01
2019-02-21T19:18:06.336Z,11.00
2019-02-21T19:20:36.529Z,10.97
2019-02-21T19:23:06.925Z,10.98
2019-02-21T19:25:36.503Z,11.00
2019-02-21T19:28:05.991Z,11.00
2019-02-21T19:30:56.785Z,10.98
2019-02-21T19:33:26.982Z,10.97
2019-02-21T19:35:56.540Z,10.96
2019-02-21T19:38:31.831Z,10.90
2019-02-21T19:41:01.470Z,10.81
2019-02-21T19:43:30.916Z,10.74
2019-02-21T19:46:00.625Z,10.68
2019-02-21T19:48:30.450Z,10.66
2019-02-21T19:51:00.005Z,10.63
2019-02-21T19:53:29.791Z,10.57
2019-02-21T19:55:59.361Z,10.55
2019-02-21T19:58:28.818Z,10.52
2019-02-21T20:00:58.485Z,10.56
2019-02-21T20:03:28.127Z,10.60
2019-02-21T20:05:57.990Z,10.57
2019-02-21T20:08:27.547Z,10.55
2019-02-21T20:10:57.359Z,10.58
2019-02-21T20:13:26.913Z,10.61
2019-02-21T20:15:56.477Z,10.58
2019-02-21T20:18:26.060Z,10.54
2019-02-21T20:20:55.794Z,10.57
2019-02-21T20:23:25.339Z,10.45
2019-02-21T20:25:55.970Z,10.45
2019-02-21T20:28:25.437Z,10.55
2019-02-21T20:30:55.049Z,10.56
2019-02-21T20:33:25.153Z,10.58
2019-02-21T20:35:54.732Z,10.60
2019-02-21T20:38:31.786Z,10.63
2019-02-21T20:40:55.458Z,10.61
2019-02-21T20:43:25.128Z,10.63
2019-02-21T20:45:54.675Z,10.70
2019-02-21T20:48:24.108Z,10.69
2019-02-21T20:50:56.968Z,10.71
2019-02-21T20:53:24.789Z,10.72
2019-02-21T20:55:54.350Z,10.76
2019-02-21T20:58:23.780Z,10.79
2019-02-21T21:00:53.390Z,10.79
2019-02-21T21:03:24.127Z,10.83
2019-02-21T21:05:54.016Z,10.85
2019-02-21T21:08:23.734Z,10.83
2019-02-21T21:10:53.678Z,10.84
2019-02-21T21:13:23.210Z,10.79
2019-02-21T21:15:52.663Z,10.72
2019-02-21T21:18:22.168Z,10.67
2019-02-21T21:20:51.587Z,10.67
2019-02-21T21:23:21.226Z,10.68
2019-02-21T21:25:50.658Z,10.69
2019-02-21T21:28:20.164Z,10.64
2019-02-21T21:30:49.668Z,10.59
2019-02-21T21:33:19.201Z,10.57
2019-02-21T21:35:48.708Z,10.51
2019-02-21T21:38:24.263Z,10.50
2019-02-21T21:40:50.287Z,10.54
2019-02-21T21:43:19.781Z,10.53
2019-02-21T21:45:49.207Z,10.51
2019-02-21T21:48:18.755Z,10.47
2019-02-21T21:50:48.494Z,10.46
2019-02-21T21:53:18.326Z,10.46
2019-02-21T21:55:47.757Z,10.51
2019-02-21T21:58:17.286Z,10.51
2019-02-21T22:00:46.769Z,10.48
2019-02-21T22:03:17.254Z,10.44
2019-02-21T22:05:46.795Z,10.44
2019-02-21T22:08:16.203Z,10.43
2019-02-21T22:10:45.665Z,10.40
2019-02-21T22:13:15.129Z,10.36
2019-02-21T22:15:44.610Z,10.34
2019-02-21T22:18:14.038Z,10.35
2019-02-21T22:20:43.515Z,10.32
2019-02-21T22:23:12.917Z,10.31
2019-02-21T22:25:42.405Z,10.25
2019-02-21T22:28:11.862Z,10.27
2019-02-21T22:30:41.698Z,10.26
2019-02-21T22:33:11.167Z,10.23
2019-02-21T22:35:40.698Z,10.21
2019-02-21T22:38:10.156Z,10.24
2019-02-21T22:40:39.582Z,10.23
2019-02-21T22:43:10.053Z,10.19
2019-02-21T22:45:39.517Z,10.19
2019-02-21T22:48:09.045Z,10.20
2019-02-21T22:50:38.522Z,10.17
2019-02-21T22:53:07.993Z,10.21
2019-02-21T22:55:37.465Z,10.18
2019-02-21T22:58:06.931Z,10.17
2019-02-21T23:00:58.862Z,10.19
2019-02-21T23:03:34.709Z,10.18
2019-02-21T23:06:24.395Z,10.19
2019-02-21T23:08:54.699Z,10.17
2019-02-21T23:11:24.248Z,10.21
2019-02-21T23:13:54.726Z,10.23
2019-02-21T23:16:24.558Z,10.23
2019-02-21T23:18:54.051Z,10.21
2019-02-21T23:21:23.596Z,10.24
2019-02-21T23:23:53.171Z,10.20
2019-02-21T23:26:22.620Z,10.20
2019-02-21T23:28:52.123Z,10.21
2019-02-21T23:31:21.584Z,10.21
2019-02-21T23:33:55.309Z,10.22
2019-02-21T23:36:24.761Z,10.22
2019-02-21T23:38:54.190Z,10.22
2019-02-21T23:41:23.673Z,10.24
2019-02-21T23:43:53.095Z,10.24
2019-02-21T23:46:22.932Z,10.25
2019-02-21T23:48:52.454Z,10.26
2019-02-21T23:51:21.881Z,10.25
2019-02-21T23:53:51.358Z,10.22
2019-02-21T23:56:20.769Z,10.24
2019-02-21T23:58:50.244Z,10.24
